createdAt,value
2022-12-31T00:03:10.202Z,98994.33
2022-12-31T00:05:58.615Z,98991.64
2022-12-31T00:08:48.632Z,99003.69
2022-12-31T00:11:38.341Z,99000.77
2022-12-31T00:14:27.025Z,98988.23
2022-12-31T00:17:15.118Z,98985.35
2022-12-31T00:20:05.789Z,98983.02
2022-12-31T00:22:54.108Z,98974.05
2022-12-31T00:25:42.564Z,98978.42
2022-12-31T00:28:33.358Z,98978.10
2022-12-31T00:31:28.753Z,98989.06
2022-12-31T00:34:17.140Z,98985.97
2022-12-31T00:37:05.710Z,98981.38
2022-12-31T00:39:53.526Z,98985.13
2022-12-31T00:42:42.066Z,98994.52
2022-12-31T00:45:30.618Z,99000.43
2022-12-31T00:48:19.410Z,99005.25
2022-12-31T00:51:17.396Z,99013.02
2022-12-31T00:54:06.025Z,99008.16
2022-12-31T00:56:54.486Z,98995.70
2022-12-31T00:59:43.718Z,99005.30
2022-12-31T01:02:33.039Z,99003.68
2022-12-31T01:05:21.593Z,98995.48
2022-12-31T01:08:09.847Z,98987.34
2022-12-31T01:11:19.348Z,98984.37
2022-12-31T01:14:15.057Z,98981.59
2022-12-31T01:17:03.514Z,98975.92
2022-12-31T01:19:52.330Z,98970.48
2022-12-31T01:22:40.979Z,98976.65
2022-12-31T01:25:29.369Z,98981.98
2022-12-31T01:28:17.822Z,98982.73
2022-12-31T01:31:10.468Z,98976.58
2022-12-31T01:33:58.919Z,98980.72
2022-12-31T01:36:47.061Z,98968.34
2022-12-31T01:39:35.714Z,98954.49
2022-12-31T01:42:26.448Z,98949.80
2022-12-31T01:45:14.919Z,98943.63
2022-12-31T01:48:03.421Z,98942.92
2022-12-31T01:50:53.720Z,98947.94
2022-12-31T01:53:43.474Z,98947.28
2022-12-31T01:56:31.950Z,98935.34
2022-12-31T01:59:22.361Z,98949.28
2022-12-31T02:02:11.113Z,98955.08
2022-12-31T02:05:03.347Z,98956.81
2022-12-31T02:07:53.768Z,98955.61
2022-12-31T02:10:42.440Z,98958.52
2022-12-31T02:13:30.967Z,98955.98
2022-12-31T02:16:40.862Z,98948.72
2022-12-31T02:19:56.401Z,98942.44
2022-12-31T02:23:32.761Z,98932.74
2022-12-31T02:26:58.280Z,98930.38
2022-12-31T02:30:13.129Z,98923.23
2022-12-31T02:33:32.612Z,98917.13
2022-12-31T02:36:26.701Z,98924.14
2022-12-31T02:39:16.122Z,98929.09
2022-12-31T02:42:04.738Z,98930.38
2022-12-31T02:44:55.439Z,98932.48
2022-12-31T02:48:10.924Z,98926.52
2022-12-31T02:51:32.436Z,98936.02
2022-12-31T02:54:58.901Z,98934.86
2022-12-31T02:58:05.975Z,98942.84
2022-12-31T03:01:17.358Z,98939.41
2022-12-31T03:04:24.860Z,98925.77
2022-12-31T03:07:21.522Z,98928.33
2022-12-31T03:10:10.674Z,98926.83
2022-12-31T03:12:58.777Z,98933.05
2022-12-31T03:15:47.599Z,98934.51
2022-12-31T03:18:54.352Z,98937.39
2022-12-31T03:22:01.312Z,98930.08
2022-12-31T03:25:10.784Z,98923.05
2022-12-31T03:28:01.075Z,98924.66
2022-12-31T03:30:56.687Z,98925.69
2022-12-31T03:33:44.880Z,98933.20
2022-12-31T03:36:33.317Z,98941.78
2022-12-31T03:39:21.735Z,98950.07
2022-12-31T03:42:10.289Z,98955.90
2022-12-31T03:44:58.328Z,98956.27
2022-12-31T03:47:46.399Z,98961.59
2022-12-31T03:50:35.901Z,98966.11
2022-12-31T03:53:24.088Z,98972.98
2022-12-31T03:56:12.572Z,98978.11
2022-12-31T03:59:01.015Z,98979.36
2022-12-31T04:01:49.153Z,98986.95
2022-12-31T04:04:37.437Z,98983.63
2022-12-31T04:07:25.730Z,98976.79
2022-12-31T04:10:16.928Z,98980.19
2022-12-31T04:13:04.948Z,98971.89
2022-12-31T04:15:53.149Z,98966.71
2022-12-31T04:18:41.497Z,98972.54
2022-12-31T04:21:34.767Z,98973.33
2022-12-31T04:24:23.866Z,98973.37
2022-12-31T04:27:13.761Z,98977.40
2022-12-31T04:30:01.736Z,98968.33
2022-12-31T04:32:49.768Z,98952.64
2022-12-31T04:35:38.377Z,98954.12
2022-12-31T04:38:27.003Z,98959.30
2022-12-31T04:41:18.626Z,98973.81
2022-12-31T04:44:07.084Z,98970.01
2022-12-31T04:46:55.705Z,98967.62
2022-12-31T04:49:44.254Z,98966.97
2022-12-31T04:52:35.762Z,98978.12
2022-12-31T04:55:28.962Z,98995.30
2022-12-31T04:58:18.936Z,98992.17
2022-12-31T05:01:07.691Z,98999.63
2022-12-31T05:03:55.834Z,99000.19
2022-12-31T05:06:44.489Z,99000.28
2022-12-31T05:09:33.262Z,99001.12
2022-12-31T05:12:21.904Z,99007.67
2022-12-31T05:15:10.395Z,98999.05
2022-12-31T05:18:01.317Z,98998.19
2022-12-31T05:20:51.043Z,98996.94
2022-12-31T05:23:39.033Z,98992.88
2022-12-31T05:26:27.672Z,98998.88
2022-12-31T05:29:16.492Z,98988.23
2022-12-31T05:32:05.259Z,98989.15
2022-12-31T05:34:53.764Z,98976.80
2022-12-31T05:37:42.210Z,98989.52
2022-12-31T05:40:31.213Z,98987.69
2022-12-31T05:43:19.279Z,98987.52
2022-12-31T05:46:07.835Z,98989.14
2022-12-31T05:48:56.074Z,98991.12
2022-12-31T05:51:46.861Z,98987.56
2022-12-31T05:54:36.540Z,98983.34
2022-12-31T05:57:25.097Z,98988.39
2022-12-31T06:00:14.301Z,98993.63
2022-12-31T06:03:03.800Z,98988.02
2022-12-31T06:05:52.186Z,98987.29
2022-12-31T06:08:42.526Z,98990.87
2022-12-31T06:11:31.082Z,98998.08
2022-12-31T06:14:19.271Z,98995.35
2022-12-31T06:17:07.314Z,98988.15
2022-12-31T06:19:57.125Z,98992.96
2022-12-31T06:22:45.652Z,98989.94
2022-12-31T06:25:37.104Z,98993.52
2022-12-31T06:28:25.859Z,98999.66
2022-12-31T06:31:15.443Z,99002.96
2022-12-31T06:34:04.575Z,99010.02
2022-12-31T06:36:53.350Z,99009.07
2022-12-31T06:39:41.475Z,99015.65
2022-12-31T06:42:31.117Z,99020.81
2022-12-31T06:45:20.607Z,99024.65
2022-12-31T06:48:08.499Z,99026.33
2022-12-31T06:50:57.689Z,99028.79
2022-12-31T06:53:49.471Z,99034.49
2022-12-31T06:56:38.363Z,99028.91
2022-12-31T06:59:29.460Z,99028.47
2022-12-31T07:02:42.562Z,99025.77
2022-12-31T07:05:47.341Z,99030.56
2022-12-31T07:09:14.257Z,99031.51
2022-12-31T07:12:28.242Z,99041.41
2022-12-31T07:15:46.547Z,99057.33
2022-12-31T07:19:10.030Z,99052.77
2022-12-31T07:21:59.513Z,99057.07
2022-12-31T07:24:48.177Z,99051.89
2022-12-31T07:28:16.832Z,99049.73
2022-12-31T07:31:51.376Z,99042.98
2022-12-31T07:35:34.588Z,99048.54
2022-12-31T07:39:04.458Z,99060.10
2022-12-31T07:42:11.668Z,99067.77
2022-12-31T07:45:24.901Z,99064.99
2022-12-31T07:48:28.019Z,99054.13
2022-12-31T07:51:17.009Z,99063.05
2022-12-31T07:54:11.831Z,99060.86
2022-12-31T07:57:02.424Z,99055.41
2022-12-31T08:00:06.996Z,99057.27
2022-12-31T08:03:31.266Z,99064.57
2022-12-31T08:06:59.100Z,99066.00
2022-12-31T08:10:02.928Z,99063.77
2022-12-31T08:12:56.704Z,99062.84
2022-12-31T08:15:45.335Z,99065.63
2022-12-31T08:18:33.994Z,99068.44
2022-12-31T08:21:49.070Z,99077.67
2022-12-31T08:24:49.710Z,99080.86
2022-12-31T08:28:06.324Z,99079.30
2022-12-31T08:31:06.241Z,99081.83
2022-12-31T08:34:21.618Z,99081.73
2022-12-31T08:37:26.865Z,99088.25
2022-12-31T08:40:52.485Z,99095.54
2022-12-31T08:43:59.675Z,99087.36
2022-12-31T08:47:03.086Z,99089.85
2022-12-31T08:49:51.699Z,99084.05
2022-12-31T08:52:40.593Z,99083.02
2022-12-31T08:55:29.281Z,99082.44
2022-12-31T08:58:53.742Z,99081.80
2022-12-31T09:01:54.593Z,99085.30
2022-12-31T09:04:59.348Z,99080.49
2022-12-31T09:08:08.887Z,99076.90
2022-12-31T09:11:28.972Z,99074.90
2022-12-31T09:14:44.038Z,99075.19
2022-12-31T09:17:45.428Z,99086.42
2022-12-31T09:20:44.126Z,99079.14
2022-12-31T09:23:33.210Z,99071.48
2022-12-31T09:27:01.851Z,99067.80
2022-12-31T09:30:07.259Z,99064.69
2022-12-31T09:33:35.370Z,99066.13
2022-12-31T09:36:32.347Z,99048.56
2022-12-31T09:39:44.220Z,99043.10
2022-12-31T09:43:18.903Z,99042.48
2022-12-31T09:46:36.965Z,99046.81
2022-12-31T09:50:06.153Z,99044.02
2022-12-31T09:53:32.422Z,99030.11
2022-12-31T09:56:36.681Z,99030.70
2022-12-31T09:59:48.911Z,99020.06
2022-12-31T10:03:29.744Z,99019.78
2022-12-31T10:06:32.938Z,99009.32
2022-12-31T10:09:50.879Z,99003.36
2022-12-31T10:13:11.970Z,98996.30
2022-12-31T10:16:37.171Z,98988.34
2022-12-31T10:19:58.961Z,98988.77
2022-12-31T10:23:07.180Z,98987.27
2022-12-31T10:26:40.469Z,98988.83
2022-12-31T10:29:41.913Z,98998.92
2022-12-31T10:32:59.004Z,98995.41
2022-12-31T10:35:53.820Z,98992.23
2022-12-31T10:39:06.151Z,98990.94
2022-12-31T10:42:26.282Z,98981.31
2022-12-31T10:45:53.325Z,98971.44
2022-12-31T10:49:21.940Z,98973.36
2022-12-31T10:52:30.652Z,98967.39
2022-12-31T10:55:31.012Z,98958.85
2022-12-31T10:58:24.660Z,98953.69
2022-12-31T11:01:33.344Z,98951.02
2022-12-31T11:04:36.659Z,98940.34
2022-12-31T11:07:54.820Z,98938.08
2022-12-31T11:11:00.921Z,98934.59
2022-12-31T11:14:33.122Z,98934.99
2022-12-31T11:18:02.022Z,98930.91
2022-12-31T11:20:56.416Z,98921.25
2022-12-31T11:24:04.230Z,98903.64
2022-12-31T11:27:08.374Z,98899.20
2022-12-31T11:30:57.200Z,98895.57
2022-12-31T11:34:12.890Z,98884.02
2022-12-31T11:37:32.911Z,98890.33
2022-12-31T11:40:54.338Z,98892.13
2022-12-31T11:44:04.359Z,98878.69
2022-12-31T11:47:23.427Z,98874.31
2022-12-31T11:50:20.070Z,98859.68
2022-12-31T11:53:37.611Z,98844.92
2022-12-31T11:56:34.150Z,98847.28
2022-12-31T11:59:22.491Z,98852.99
2022-12-31T12:02:34.781Z,98837.53
2022-12-31T12:05:26.771Z,98840.86
2022-12-31T12:08:16.674Z,98832.97
2022-12-31T12:11:21.614Z,98836.08
2022-12-31T12:14:34.004Z,98838.48
2022-12-31T12:17:34.449Z,98842.10
2022-12-31T12:20:32.880Z,98834.84
2022-12-31T12:23:27.268Z,98837.66
2022-12-31T12:26:38.559Z,98837.22
2022-12-31T12:29:34.822Z,98825.83
2022-12-31T12:32:27.413Z,98831.55
2022-12-31T12:35:25.204Z,98827.61
2022-12-31T12:38:21.187Z,98834.35
2022-12-31T12:41:26.602Z,98835.11
2022-12-31T12:44:17.347Z,98839.55
2022-12-31T12:47:08.778Z,98833.38
2022-12-31T12:49:58.697Z,98837.84
2022-12-31T12:52:57.714Z,98840.86
2022-12-31T12:56:37.442Z,98839.41
2022-12-31T12:59:53.850Z,98839.83
2022-12-31T13:03:06.952Z,98841.65
2022-12-31T13:06:30.991Z,98830.70
2022-12-31T13:10:13.893Z,98834.05
2022-12-31T13:13:59.588Z,98834.75
2022-12-31T13:17:00.281Z,98838.63
2022-12-31T13:20:10.491Z,98833.45
2022-12-31T13:23:19.516Z,98829.30
2022-12-31T13:26:28.555Z,98831.02
2022-12-31T13:29:24.129Z,98823.36
2022-12-31T13:32:33.200Z,98830.65
2022-12-31T13:36:05.691Z,98829.63
2022-12-31T13:39:14.622Z,98821.26
2022-12-31T13:42:21.034Z,98820.54
2022-12-31T13:45:24.887Z,98821.63
2022-12-31T13:48:20.179Z,98825.04
2022-12-31T13:51:23.199Z,98827.73
2022-12-31T13:54:30.984Z,98831.06
2022-12-31T13:57:48.452Z,98828.23
2022-12-31T14:00:58.749Z,98830.65
2022-12-31T14:04:16.239Z,98826.12
2022-12-31T14:07:12.929Z,98826.27
2022-12-31T14:10:01.015Z,98834.13
2022-12-31T14:12:56.535Z,98839.20
2022-12-31T14:16:19.526Z,98836.15
2022-12-31T14:19:29.158Z,98838.70
2022-12-31T14:22:55.297Z,98840.27
2022-12-31T14:26:06.976Z,98842.71
2022-12-31T14:29:10.072Z,98837.05
2022-12-31T14:32:29.890Z,98835.98
2022-12-31T14:35:45.130Z,98831.86
2022-12-31T14:39:02.567Z,98835.40
2022-12-31T14:42:08.508Z,98829.44
2022-12-31T14:45:43.211Z,98817.20
2022-12-31T14:48:54.557Z,98818.11
2022-12-31T14:51:45.407Z,98825.07
2022-12-31T14:54:38.709Z,98813.02
2022-12-31T14:58:01.619Z,98798.52
2022-12-31T15:01:15.944Z,98799.39
2022-12-31T15:04:15.400Z,98797.92
2022-12-31T15:07:22.115Z,98805.46
2022-12-31T15:10:18.036Z,98806.99
2022-12-31T15:14:03.838Z,98801.13
2022-12-31T15:16:52.255Z,98783.80
2022-12-31T15:20:10.113Z,98801.24
2022-12-31T15:23:01.883Z,98807.80
2022-12-31T15:26:00.431Z,98813.67
2022-12-31T15:29:04.452Z,98814.17
2022-12-31T15:31:54.640Z,98814.61
2022-12-31T15:34:42.928Z,98822.52
2022-12-31T15:37:37.221Z,98816.45
2022-12-31T15:40:25.260Z,98810.24
2022-12-31T15:43:29.443Z,98811.98
2022-12-31T15:46:24.041Z,98814.55
2022-12-31T15:49:23.317Z,98811.75
2022-12-31T15:52:38.786Z,98811.72
2022-12-31T15:55:51.105Z,98805.17
2022-12-31T15:58:40.267Z,98805.30
2022-12-31T16:01:34.217Z,98800.30
2022-12-31T16:04:33.504Z,98793.80
2022-12-31T16:07:24.378Z,98818.84
2022-12-31T16:10:24.830Z,98824.44
2022-12-31T16:13:25.381Z,98808.48
2022-12-31T16:16:24.589Z,98784.55
2022-12-31T16:19:46.347Z,98809.82
2022-12-31T16:22:40.104Z,98802.86
2022-12-31T16:25:32.701Z,98814.63
2022-12-31T16:28:28.352Z,98818.53
2022-12-31T16:31:20.146Z,98835.52
2022-12-31T16:34:18.983Z,98841.98
2022-12-31T16:37:16.247Z,98847.49
2022-12-31T16:40:19.071Z,98841.40
2022-12-31T16:43:27.584Z,98841.32
2022-12-31T16:46:32.020Z,98844.05
2022-12-31T16:49:22.287Z,98840.52
2022-12-31T16:52:32.802Z,98846.52
2022-12-31T16:55:28.875Z,98849.61
2022-12-31T16:58:24.563Z,98850.91
2022-12-31T17:01:18.311Z,98854.87
2022-12-31T17:04:11.233Z,98854.18
2022-12-31T17:07:35.579Z,98856.73
2022-12-31T17:10:36.197Z,98857.91
2022-12-31T17:13:32.276Z,98852.63
2022-12-31T17:16:20.962Z,98852.30
2022-12-31T17:19:43.375Z,98858.44
2022-12-31T17:22:43.958Z,98865.09
2022-12-31T17:25:36.162Z,98861.57
2022-12-31T17:28:26.450Z,98856.07
2022-12-31T17:31:29.726Z,98858.86
2022-12-31T17:34:22.604Z,98866.16
2022-12-31T17:37:19.366Z,98872.27
2022-12-31T17:40:53.207Z,98868.80
2022-12-31T17:43:43.317Z,98863.19
2022-12-31T17:46:34.859Z,98869.29
2022-12-31T17:49:29.868Z,98872.09
2022-12-31T17:52:18.089Z,98877.52
2022-12-31T17:55:07.049Z,98873.86
2022-12-31T17:57:58.028Z,98864.50
2022-12-31T18:00:46.449Z,98861.98
2022-12-31T18:03:34.958Z,98864.59
2022-12-31T18:06:23.522Z,98868.67
2022-12-31T18:09:11.865Z,98864.35
2022-12-31T18:12:07.137Z,98867.01
2022-12-31T18:14:55.038Z,98861.01
2022-12-31T18:17:44.146Z,98862.27
2022-12-31T18:20:32.593Z,98867.50
2022-12-31T18:23:39.836Z,98860.85
2022-12-31T18:26:29.120Z,98847.11
2022-12-31T18:29:19.971Z,98850.48
2022-12-31T18:32:32.030Z,98863.38
2022-12-31T18:38:31.678Z,98870.55
2022-12-31T18:41:49.068Z,98880.70
2022-12-31T18:44:37.098Z,98882.63
2022-12-31T18:47:25.380Z,98891.71
2022-12-31T18:50:17.743Z,98895.05
2022-12-31T18:53:06.874Z,98902.42
2022-12-31T18:55:58.510Z,98912.57
2022-12-31T18:58:47.862Z,98921.87
2022-12-31T19:01:39.714Z,98913.30
2022-12-31T19:04:28.596Z,98914.65
2022-12-31T19:07:17.205Z,98911.46
2022-12-31T19:10:06.533Z,98909.00
2022-12-31T19:12:55.121Z,98916.85
2022-12-31T19:15:50.567Z,98923.09
2022-12-31T19:18:38.886Z,98924.22
2022-12-31T19:21:31.546Z,98917.29
2022-12-31T19:24:22.857Z,98913.70
2022-12-31T19:27:15.244Z,98910.09
2022-12-31T19:30:06.576Z,98916.21
2022-12-31T19:32:56.099Z,98904.58
2022-12-31T19:35:45.164Z,98898.44
2022-12-31T19:38:33.955Z,98899.31
2022-12-31T19:41:22.461Z,98903.34
2022-12-31T19:44:20.340Z,98899.80
2022-12-31T19:47:13.600Z,98898.26
2022-12-31T19:50:01.991Z,98909.49
2022-12-31T19:52:52.637Z,98914.61
2022-12-31T19:55:41.769Z,98920.00
2022-12-31T19:58:30.689Z,98926.34
2022-12-31T20:01:23.033Z,98927.41
2022-12-31T20:04:11.463Z,98921.69
2022-12-31T20:07:00.697Z,98925.98
2022-12-31T20:09:49.080Z,98929.66
2022-12-31T20:12:44.421Z,98928.39
2022-12-31T20:15:33.826Z,98923.13
2022-12-31T20:18:23.447Z,98924.75
2022-12-31T20:21:17.989Z,98919.20
2022-12-31T20:24:06.864Z,98914.52
2022-12-31T20:26:55.052Z,98915.14
2022-12-31T20:29:43.082Z,98919.12
2022-12-31T20:32:31.550Z,98912.16
2022-12-31T20:35:20.390Z,98903.42
2022-12-31T20:38:09.059Z,98903.45
2022-12-31T20:41:07.689Z,98896.61
2022-12-31T20:43:59.939Z,98899.95
2022-12-31T20:46:48.276Z,98909.13
2022-12-31T20:50:09.773Z,98914.10
2022-12-31T20:52:45.701Z,98923.08
2022-12-31T20:55:38.904Z,98941.70
2022-12-31T20:58:26.805Z,98943.47
2022-12-31T21:01:17.121Z,98954.08
2022-12-31T21:04:06.708Z,98953.61
2022-12-31T21:06:55.160Z,98945.81
2022-12-31T21:09:44.407Z,98938.75
2022-12-31T21:12:45.058Z,98936.44
2022-12-31T21:15:32.927Z,98933.50
2022-12-31T21:18:23.196Z,98926.66
2022-12-31T21:21:12.225Z,98936.67
2022-12-31T21:24:00.588Z,98945.83
2022-12-31T21:26:49.069Z,98956.17
2022-12-31T21:29:55.661Z,98974.43
2022-12-31T21:32:48.871Z,98974.86
2022-12-31T21:35:43.779Z,98964.05
2022-12-31T21:38:37.338Z,98953.39
2022-12-31T21:41:44.068Z,98950.85
2022-12-31T21:44:32.505Z,98943.61
2022-12-31T21:47:45.699Z,98942.31
2022-12-31T21:50:36.303Z,98941.67
2022-12-31T21:53:32.272Z,98930.48
2022-12-31T21:56:25.178Z,98930.95
2022-12-31T21:59:32.075Z,98930.86
2022-12-31T22:02:42.923Z,98941.97
2022-12-31T22:05:56.177Z,98943.84
2022-12-31T22:08:45.916Z,98937.02
2022-12-31T22:11:34.502Z,98914.45
2022-12-31T22:14:22.861Z,98913.53
2022-12-31T22:17:10.748Z,98915.44
2022-12-31T22:23:08.884Z,98914.54
2022-12-31T22:25:57.851Z,98925.21
2022-12-31T22:28:47.229Z,98923.40
2022-12-31T22:31:36.415Z,98928.40
2022-12-31T22:34:24.539Z,98932.17
2022-12-31T22:37:35.719Z,98927.27
2022-12-31T22:40:21.776Z,98932.06
2022-12-31T22:43:12.880Z,98936.88
2022-12-31T22:46:13.507Z,98939.66
2022-12-31T22:49:04.193Z,98942.58
2022-12-31T22:51:58.768Z,98951.75
2022-12-31T22:54:49.067Z,98948.89
2022-12-31T22:57:36.907Z,98953.68
2022-12-31T23:00:39.383Z,98956.58
2022-12-31T23:03:27.886Z,98940.70
2022-12-31T23:06:16.935Z,98951.73
2022-12-31T23:09:23.765Z,98953.31
2022-12-31T23:12:12.110Z,98949.38
2022-12-31T23:15:18.889Z,98949.45
2022-12-31T23:18:25.993Z,98950.92
2022-12-31T23:21:34.671Z,98957.91
2022-12-31T23:24:26.388Z,98961.90
2022-12-31T23:27:15.188Z,98953.76
2022-12-31T23:30:04.357Z,98964.25
2022-12-31T23:32:53.231Z,98956.42
2022-12-31T23:35:41.973Z,98947.27
2022-12-31T23:38:30.307Z,98952.36
2022-12-31T23:41:20.424Z,98953.48
2022-12-31T23:44:12.082Z,98942.58
2022-12-31T23:47:00.807Z,98943.01
2022-12-31T23:49:49.651Z,98942.70
2022-12-31T23:52:38.122Z,98946.60
2022-12-31T23:55:26.597Z,98952.35
2022-12-31T23:58:15.974Z,98951.13
